createdAt,value
2019-04-04T00:01:17.086Z,2.20
2019-04-04T00:03:46.110Z,1.37
2019-04-04T00:06:14.718Z,1.50
2019-04-04T00:08:43.283Z,1.80
2019-04-04T00:11:11.767Z,1.73
2019-04-04T00:13:42.074Z,1.47
2019-04-04T00:16:10.353Z,1.50
2019-04-04T00:18:38.862Z,1.67
2019-04-04T00:21:07.349Z,1.43
2019-04-04T00:23:37.793Z,1.80
2019-04-04T00:26:06.014Z,1.70
2019-04-04T00:28:34.481Z,1.75
2019-04-04T00:31:03.022Z,1.80
2019-04-04T00:33:33.135Z,2.55
2019-04-04T00:36:02.653Z,2.80
2019-04-04T00:38:31.931Z,1.62
2019-04-04T00:41:00.560Z,3.50
2019-04-04T00:43:29.004Z,2.52
2019-04-04T00:46:00.519Z,1.67
2019-04-04T00:48:27.636Z,1.70
2019-04-04T00:50:56.250Z,1.98
2019-04-04T00:53:24.804Z,1.95
2019-04-04T00:55:53.390Z,1.90
2019-04-04T00:58:21.989Z,1.80
2019-04-04T01:00:50.495Z,2.87
2019-04-04T01:03:18.954Z,2.85
2019-04-04T01:05:47.459Z,2.00
2019-04-04T01:08:15.904Z,1.80
2019-04-04T01:10:44.869Z,1.80
2019-04-04T01:13:13.381Z,1.70
2019-04-04T01:15:41.979Z,1.73
2019-04-04T01:18:10.458Z,1.72
2019-04-04T01:20:39.000Z,2.70
2019-04-04T01:23:07.568Z,1.70
2019-04-04T01:25:36.188Z,1.53
2019-04-04T01:28:06.144Z,2.37
2019-04-04T01:30:34.902Z,1.98
2019-04-04T01:33:03.773Z,2.00
2019-04-04T01:35:32.414Z,1.57
2019-04-04T01:38:01.005Z,1.98
2019-04-04T01:40:32.915Z,2.60
2019-04-04T01:42:59.603Z,1.50
2019-04-04T01:45:28.133Z,1.80
2019-04-04T01:47:56.601Z,1.65
2019-04-04T01:50:25.057Z,1.90
2019-04-04T01:52:53.571Z,2.45
2019-04-04T01:55:22.052Z,2.10
2019-04-04T01:57:50.611Z,1.80
2019-04-04T02:00:19.218Z,1.73
2019-04-04T02:02:47.773Z,2.95
2019-04-04T02:05:16.317Z,1.87
2019-04-04T02:07:44.987Z,2.87
2019-04-04T02:10:13.610Z,4.40
2019-04-04T02:12:42.110Z,3.17
2019-04-04T02:15:13.961Z,5.55
2019-04-04T02:17:40.916Z,2.83
2019-04-04T02:20:09.526Z,3.37
2019-04-04T02:22:38.011Z,1.67
2019-04-04T02:25:07.417Z,2.43
2019-04-04T02:27:37.578Z,4.83
2019-04-04T02:30:07.046Z,2.20
2019-04-04T02:32:35.686Z,2.70
2019-04-04T02:35:10.062Z,3.17
2019-04-04T02:37:36.175Z,2.37
2019-04-04T02:40:08.687Z,2.50
2019-04-04T02:42:37.340Z,2.75
2019-04-04T02:45:06.596Z,5.53
2019-04-04T02:47:35.204Z,3.80
2019-04-04T02:50:04.508Z,2.97
2019-04-04T02:52:33.025Z,3.50
2019-04-04T02:55:01.550Z,4.45
2019-04-04T02:57:30.086Z,4.42
2019-04-04T02:59:58.849Z,3.80
2019-04-04T03:02:27.450Z,5.03
2019-04-04T03:04:56.006Z,3.80
2019-04-04T03:07:24.510Z,3.10
2019-04-04T03:09:53.056Z,5.78
2019-04-04T03:12:25.705Z,3.63
2019-04-04T03:14:51.882Z,3.83
2019-04-04T03:17:20.384Z,5.28
2019-04-04T03:19:48.859Z,5.53
2019-04-04T03:22:17.363Z,5.70
2019-04-04T03:24:45.825Z,5.17
2019-04-04T03:27:14.368Z,7.00
2019-04-04T03:29:43.023Z,6.55
2019-04-04T03:32:14.605Z,6.77
2019-04-04T03:34:47.847Z,6.90
2019-04-04T03:37:12.407Z,8.97
2019-04-04T03:39:41.110Z,10.68
2019-04-04T03:42:09.641Z,10.20
2019-04-04T03:44:38.092Z,10.03
2019-04-04T03:47:10.070Z,9.10
2019-04-04T03:49:36.706Z,10.38
2019-04-04T03:52:05.207Z,11.53
2019-04-04T03:54:33.700Z,13.70
2019-04-04T03:57:02.163Z,10.70
2019-04-04T03:59:32.457Z,11.53
2019-04-04T04:02:00.771Z,13.50
2019-04-04T04:04:29.309Z,9.68
2019-04-04T04:06:57.730Z,11.33
2019-04-04T04:09:27.246Z,12.75
2019-04-04T04:11:55.792Z,12.13
2019-04-04T04:14:24.285Z,16.20
2019-04-04T04:16:52.760Z,12.57
2019-04-04T04:19:24.229Z,12.82
2019-04-04T04:21:51.362Z,12.73
2019-04-04T04:24:19.866Z,11.12
2019-04-04T04:26:48.326Z,13.40
2019-04-04T04:29:16.887Z,12.28
2019-04-04T04:31:48.317Z,12.15
2019-04-04T04:34:15.486Z,13.15
2019-04-04T04:36:47.685Z,11.60
2019-04-04T04:39:14.074Z,13.28
2019-04-04T04:41:42.550Z,12.23
2019-04-04T04:44:11.038Z,13.20
2019-04-04T04:46:39.501Z,13.57
2019-04-04T04:49:08.004Z,15.78
2019-04-04T04:51:36.462Z,16.70
2019-04-04T04:54:04.963Z,15.05
2019-04-04T04:56:33.424Z,14.30
2019-04-04T04:59:01.927Z,13.78
2019-04-04T05:01:30.387Z,11.50
2019-04-04T05:03:58.898Z,12.55
2019-04-04T05:06:27.365Z,10.40
2019-04-04T05:08:55.857Z,13.30
2019-04-04T05:11:24.365Z,13.30
2019-04-04T05:13:52.871Z,13.20
2019-04-04T05:16:21.339Z,11.90
2019-04-04T05:18:49.813Z,15.18
2019-04-04T05:21:24.785Z,16.00
2019-04-04T05:23:48.426Z,14.38
2019-04-04T05:26:16.894Z,20.70
2019-04-04T05:28:45.392Z,16.55
2019-04-04T05:31:13.884Z,17.43
2019-04-04T05:33:42.379Z,17.20
2019-04-04T05:36:10.845Z,20.60
2019-04-04T05:38:42.747Z,16.10
2019-04-04T05:41:09.580Z,18.67
2019-04-04T05:43:38.152Z,16.55
2019-04-04T05:46:06.820Z,15.97
2019-04-04T05:48:35.271Z,17.27
2019-04-04T05:51:03.838Z,17.77
2019-04-04T05:53:35.166Z,15.78
2019-04-04T05:56:02.557Z,15.87
2019-04-04T05:58:31.028Z,18.98
2019-04-04T06:01:01.526Z,16.12
2019-04-04T06:03:42.389Z,15.85
2019-04-04T06:06:10.879Z,15.83
2019-04-04T06:08:42.978Z,15.95
2019-04-04T06:11:09.494Z,21.62
2019-04-04T06:13:37.954Z,13.28
2019-04-04T06:16:06.526Z,16.23
2019-04-04T06:18:34.987Z,15.55
2019-04-04T06:21:03.479Z,14.70
2019-04-04T06:23:31.944Z,14.83
2019-04-04T06:26:00.472Z,15.93
2019-04-04T06:28:28.915Z,13.70
2019-04-04T06:30:57.418Z,12.57
2019-04-04T06:33:25.892Z,13.83
2019-04-04T06:35:54.382Z,13.93
2019-04-04T06:38:23.411Z,11.53
2019-04-04T06:40:52.528Z,15.53
2019-04-04T06:43:20.990Z,16.52
2019-04-04T06:45:49.495Z,19.80
2019-04-04T06:48:17.979Z,17.45
2019-04-04T06:50:46.532Z,17.03
2019-04-04T06:53:15.007Z,15.68
2019-04-04T06:55:43.565Z,18.40
2019-04-04T06:58:12.037Z,15.03
2019-04-04T07:00:41.984Z,18.27
2019-04-04T07:03:10.706Z,19.67
2019-04-04T07:05:40.156Z,17.93
2019-04-04T07:08:08.619Z,20.15
2019-04-04T07:10:37.112Z,22.73
2019-04-04T07:13:20.465Z,20.55
2019-04-04T07:15:46.318Z,27.67
2019-04-04T07:18:05.973Z,19.23
2019-04-04T07:20:34.475Z,23.40
2019-04-04T07:23:02.934Z,21.07
2019-04-04T07:25:31.428Z,23.35
2019-04-04T07:27:59.889Z,19.73
2019-04-04T07:30:29.252Z,19.57
2019-04-04T07:32:57.755Z,18.20
2019-04-04T07:35:26.266Z,28.00
2019-04-04T07:37:57.457Z,28.10
2019-04-04T07:40:24.847Z,26.13
2019-04-04T07:42:53.339Z,20.43
2019-04-04T07:45:21.805Z,18.30
2019-04-04T07:47:50.343Z,19.75
2019-04-04T07:50:18.815Z,20.10
2019-04-04T07:52:47.319Z,23.05
2019-04-04T07:55:15.800Z,17.52
2019-04-04T07:57:44.306Z,19.10
2019-04-04T08:00:12.933Z,21.90
2019-04-04T08:02:41.436Z,17.50
2019-04-04T08:05:12.928Z,18.77
2019-04-04T08:07:40.118Z,18.17
2019-04-04T08:10:19.898Z,16.42
2019-04-04T08:12:38.954Z,21.95
2019-04-04T08:15:07.595Z,20.27
2019-04-04T08:17:36.095Z,18.73
2019-04-04T08:20:06.363Z,18.35
2019-04-04T08:22:34.862Z,17.67
2019-04-04T08:25:03.467Z,17.60
2019-04-04T08:27:31.966Z,20.00
2019-04-04T08:30:00.445Z,17.60
2019-04-04T08:32:28.937Z,19.90
2019-04-04T08:34:57.401Z,18.57
2019-04-04T08:37:25.970Z,21.20
2019-04-04T08:39:54.444Z,20.97
2019-04-04T08:42:23.005Z,21.50
2019-04-04T08:44:51.479Z,22.67
2019-04-04T08:47:19.974Z,18.90
2019-04-04T08:49:48.445Z,22.98
2019-04-04T08:52:20.515Z,19.20
2019-04-04T08:54:47.064Z,20.65
2019-04-04T08:57:15.582Z,20.93
2019-04-04T08:59:44.050Z,20.77
2019-04-04T09:02:12.559Z,18.10
2019-04-04T09:04:41.018Z,20.43
2019-04-04T09:07:09.528Z,20.40
2019-04-04T09:09:38.088Z,22.98
2019-04-04T09:12:06.603Z,24.87
2019-04-04T09:14:35.061Z,23.27
2019-04-04T09:17:03.638Z,23.10
2019-04-04T09:19:32.150Z,22.20
2019-04-04T09:22:00.595Z,24.33
2019-04-04T09:24:29.093Z,24.85
2019-04-04T09:26:57.567Z,21.30
2019-04-04T09:29:26.082Z,23.32
2019-04-04T09:31:54.563Z,23.85
2019-04-04T09:34:23.087Z,23.70
2019-04-04T09:36:51.551Z,24.50
2019-04-04T09:39:20.090Z,22.67
2019-04-04T09:41:49.092Z,27.53
2019-04-04T09:44:17.619Z,26.68
2019-04-04T09:46:46.122Z,28.83
2019-04-04T09:49:14.598Z,28.23
2019-04-04T09:51:43.083Z,22.53
2019-04-04T09:54:11.576Z,29.98
2019-04-04T09:56:40.066Z,31.55
2019-04-04T09:59:08.580Z,28.47
2019-04-04T10:01:37.125Z,25.57
2019-04-04T10:04:05.704Z,29.40
2019-04-04T10:06:34.191Z,22.93
2019-04-04T10:09:15.070Z,20.92
2019-04-04T10:11:32.902Z,23.33
2019-04-04T10:14:04.002Z,18.32
2019-04-04T10:16:31.643Z,13.07
2019-04-04T10:19:00.158Z,16.75
2019-04-04T10:21:28.711Z,15.83
2019-04-04T10:23:57.225Z,14.53
2019-04-04T10:26:25.778Z,14.10
2019-04-04T10:28:54.277Z,12.68
2019-04-04T10:31:22.748Z,12.77
2019-04-04T10:33:51.258Z,11.25
2019-04-04T10:36:19.722Z,8.40
2019-04-04T10:38:48.235Z,8.93
2019-04-04T10:41:16.782Z,9.03
2019-04-04T10:43:45.294Z,9.83
2019-04-04T10:46:13.780Z,10.53
2019-04-04T10:48:42.298Z,12.88
2019-04-04T10:51:10.781Z,13.03
2019-04-04T10:53:39.276Z,11.95
2019-04-04T10:56:07.754Z,10.47
2019-04-04T10:58:36.266Z,10.18
2019-04-04T11:01:04.802Z,11.83
2019-04-04T11:03:33.302Z,13.65
2019-04-04T11:06:01.768Z,13.47
2019-04-04T11:08:30.260Z,18.25
2019-04-04T11:10:59.003Z,11.93
2019-04-04T11:13:33.318Z,11.22
2019-04-04T11:15:57.632Z,12.33
2019-04-04T11:18:26.118Z,9.48
2019-04-04T11:20:54.582Z,10.80
2019-04-04T11:23:23.081Z,11.20
2019-04-04T11:25:51.542Z,11.77
2019-04-04T11:28:20.038Z,10.95
2019-04-04T11:30:48.501Z,14.47
2019-04-04T11:33:17.001Z,12.63
2019-04-04T11:35:45.468Z,9.77
2019-04-04T11:38:13.959Z,11.18
2019-04-04T11:40:42.430Z,13.38
2019-04-04T11:43:10.927Z,12.50
2019-04-04T11:45:39.468Z,15.03
2019-04-04T11:48:07.923Z,15.98
2019-04-04T11:50:36.413Z,9.27
2019-04-04T11:53:04.878Z,10.40
2019-04-04T11:55:33.368Z,16.13
2019-04-04T11:58:01.830Z,9.15
2019-04-04T12:00:31.965Z,14.43
2019-04-04T12:03:00.497Z,10.18
2019-04-04T12:05:28.996Z,8.40
2019-04-04T12:07:57.463Z,14.90
2019-04-04T12:10:25.953Z,10.00
2019-04-04T12:12:54.412Z,11.33
2019-04-04T12:15:22.910Z,19.67
2019-04-04T12:17:51.370Z,14.15
2019-04-04T12:20:19.871Z,19.40
2019-04-04T12:22:48.334Z,9.85
2019-04-04T12:25:16.825Z,7.90
2019-04-04T12:27:45.830Z,11.12
2019-04-04T12:30:14.498Z,26.97
2019-04-04T12:32:42.977Z,11.00
2019-04-04T12:35:11.556Z,20.37
2019-04-04T12:37:40.024Z,22.82
2019-04-04T12:40:20.024Z,17.00
2019-04-04T12:42:39.076Z,25.95
2019-04-04T12:45:08.892Z,18.27
2019-04-04T12:47:37.624Z,11.10
2019-04-04T12:50:06.689Z,8.37
2019-04-04T12:52:37.002Z,16.20
2019-04-04T12:55:06.481Z,9.30
2019-04-04T12:57:35.024Z,11.50
2019-04-04T13:00:04.260Z,10.87
2019-04-04T13:02:32.730Z,11.90
2019-04-04T13:05:01.217Z,11.10
2019-04-04T13:07:29.673Z,17.57
2019-04-04T13:10:10.672Z,22.87
2019-04-04T13:12:28.280Z,11.68
2019-04-04T13:14:56.779Z,12.82
2019-04-04T13:17:25.233Z,8.47
2019-04-04T13:19:53.733Z,8.78
2019-04-04T13:22:22.196Z,10.70
2019-04-04T13:24:50.677Z,9.23
2019-04-04T13:27:19.146Z,14.53
2019-04-04T13:29:47.639Z,8.65
2019-04-04T13:32:16.100Z,9.40
2019-04-04T13:34:44.589Z,12.75
2019-04-04T13:37:13.062Z,47.15
2019-04-04T13:39:41.568Z,20.75
2019-04-04T13:42:10.038Z,31.97
2019-04-04T13:44:39.243Z,20.05
2019-04-04T13:47:07.714Z,9.00
2019-04-04T13:49:36.203Z,5.85
2019-04-04T13:52:04.792Z,6.87
2019-04-04T13:54:33.299Z,5.65
2019-04-04T13:57:01.759Z,5.27
2019-04-04T13:59:30.242Z,7.92
2019-04-04T14:01:58.698Z,5.37
2019-04-04T14:04:27.175Z,4.80
2019-04-04T14:06:55.644Z,4.20
2019-04-04T14:09:24.195Z,4.42
2019-04-04T14:11:52.656Z,3.77
2019-04-04T14:14:21.164Z,2.87
2019-04-04T14:16:49.620Z,2.90
2019-04-04T14:19:18.118Z,2.47
2019-04-04T14:21:46.580Z,2.50
2019-04-04T14:24:15.074Z,2.40
2019-04-04T14:26:46.004Z,2.00
2019-04-04T14:29:26.301Z,1.90
2019-04-04T14:31:43.861Z,3.90
2019-04-04T14:34:12.467Z,2.22
2019-04-04T14:36:40.954Z,2.93
2019-04-04T14:39:09.684Z,1.98
2019-04-04T14:41:38.261Z,1.83
2019-04-04T14:44:06.821Z,2.47
2019-04-04T14:46:37.134Z,2.20
2019-04-04T14:49:05.431Z,2.25
2019-04-04T14:51:33.926Z,2.77
2019-04-04T14:54:02.385Z,2.25
2019-04-04T14:56:30.956Z,2.30
2019-04-04T14:58:59.419Z,2.70
2019-04-04T15:01:28.010Z,2.70
2019-04-04T15:03:56.549Z,2.50
2019-04-04T15:06:25.064Z,1.80
2019-04-04T15:08:53.520Z,2.40
2019-04-04T15:11:24.330Z,2.20
2019-04-04T15:13:52.554Z,2.30
2019-04-04T15:16:21.498Z,3.60
2019-04-04T15:18:49.955Z,2.40
2019-04-04T15:21:18.530Z,2.98
2019-04-04T15:23:46.974Z,3.05
2019-04-04T15:26:15.482Z,3.25
2019-04-04T15:28:43.935Z,3.50
2019-04-04T15:31:12.487Z,4.10
2019-04-04T15:33:40.953Z,4.22
2019-04-04T15:36:09.460Z,3.87
2019-04-04T15:38:37.926Z,4.17
2019-04-04T15:41:06.493Z,3.80
2019-04-04T15:43:34.971Z,6.53
2019-04-04T15:46:03.479Z,4.73
2019-04-04T15:48:31.939Z,4.42
2019-04-04T15:51:00.505Z,4.13
2019-04-04T15:53:29.034Z,4.03
2019-04-04T15:55:57.535Z,3.50
2019-04-04T15:58:26.121Z,4.55
2019-04-04T16:00:54.682Z,3.90
2019-04-04T16:03:23.232Z,3.52
2019-04-04T16:05:51.803Z,4.13
2019-04-04T16:08:20.274Z,3.67
2019-04-04T16:10:48.756Z,4.60
2019-04-04T16:13:17.256Z,3.70
2019-04-04T16:15:45.714Z,3.77
2019-04-04T16:18:14.210Z,3.55
2019-04-04T16:20:42.943Z,3.70
2019-04-04T16:23:11.562Z,3.20
2019-04-04T16:25:40.006Z,3.00
2019-04-04T16:28:08.597Z,4.47
2019-04-04T16:30:37.070Z,3.40
2019-04-04T16:33:05.656Z,3.08
2019-04-04T16:35:34.278Z,2.60
2019-04-04T16:38:02.914Z,2.50
2019-04-04T16:40:31.417Z,3.40
2019-04-04T16:42:59.919Z,3.70
2019-04-04T16:45:28.373Z,2.13
2019-04-04T16:47:57.006Z,3.17
2019-04-04T16:50:25.531Z,2.40
2019-04-04T16:52:54.059Z,2.50
2019-04-04T16:55:22.710Z,3.12
2019-04-04T16:57:51.211Z,3.12
2019-04-04T17:00:20.998Z,2.73
2019-04-04T17:02:49.653Z,2.50
2019-04-04T17:05:18.268Z,2.00
2019-04-04T17:07:46.758Z,1.80
2019-04-04T17:10:15.290Z,1.87
2019-04-04T17:12:43.787Z,1.87
2019-04-04T17:15:12.398Z,1.65
2019-04-04T17:17:40.912Z,2.10
2019-04-04T17:20:09.734Z,2.40
2019-04-04T17:22:38.294Z,2.62
2019-04-04T17:25:07.005Z,3.00
2019-04-04T17:27:37.223Z,2.37
2019-04-04T17:30:07.142Z,2.67
2019-04-04T17:32:35.633Z,2.33
2019-04-04T17:35:06.751Z,3.57
2019-04-04T17:37:35.246Z,3.30
2019-04-04T17:40:06.145Z,2.67
2019-04-04T17:42:34.595Z,2.60
2019-04-04T17:45:04.834Z,3.10
2019-04-04T17:47:33.370Z,2.80
2019-04-04T17:50:01.911Z,3.17
2019-04-04T17:52:31.073Z,3.15
2019-04-04T17:54:59.632Z,3.02
2019-04-04T17:57:28.266Z,2.80
2019-04-04T17:59:56.833Z,2.80
2019-04-04T18:02:25.341Z,3.03
2019-04-04T18:04:53.809Z,2.92
2019-04-04T18:07:22.273Z,3.50
2019-04-04T18:09:50.856Z,3.10
2019-04-04T18:12:19.417Z,3.93
2019-04-04T18:14:47.907Z,3.70
2019-04-04T18:17:16.369Z,3.13
2019-04-04T18:19:45.506Z,3.98
2019-04-04T18:22:13.968Z,5.80
2019-04-04T18:24:42.459Z,3.85
2019-04-04T18:27:10.923Z,4.30
2019-04-04T18:29:39.428Z,3.90
2019-04-04T18:32:07.889Z,4.40
2019-04-04T18:34:36.386Z,6.10
2019-04-04T18:37:04.914Z,5.10
2019-04-04T18:39:33.415Z,6.20
2019-04-04T18:42:01.947Z,4.83
2019-04-04T18:44:30.447Z,5.10
2019-04-04T18:46:58.918Z,5.13
2019-04-04T18:49:27.451Z,4.62
2019-04-04T18:51:55.936Z,4.43
2019-04-04T18:54:24.462Z,6.33
2019-04-04T18:56:52.928Z,5.00
2019-04-04T18:59:21.483Z,5.35
2019-04-04T19:01:50.229Z,4.70
2019-04-04T19:04:18.718Z,5.10
2019-04-04T19:06:47.200Z,5.43
2019-04-04T19:09:15.788Z,5.03
2019-04-04T19:11:44.306Z,5.53
2019-04-04T19:14:12.904Z,5.75
2019-04-04T19:16:41.461Z,5.40
2019-04-04T19:19:10.010Z,6.53
2019-04-04T19:21:38.564Z,6.70
2019-04-04T19:24:07.059Z,7.92
2019-04-04T19:26:35.719Z,6.50
2019-04-04T19:29:04.296Z,7.75
2019-04-04T19:31:33.172Z,8.20
2019-04-04T19:34:01.846Z,6.97
2019-04-04T19:36:30.484Z,7.10
2019-04-04T19:38:59.147Z,6.50
2019-04-04T19:41:27.730Z,6.53
2019-04-04T19:43:56.262Z,7.20
2019-04-04T19:46:36.585Z,6.43
2019-04-04T19:48:54.906Z,6.58
2019-04-04T19:51:23.393Z,7.17
2019-04-04T19:53:51.855Z,7.80
2019-04-04T19:56:20.431Z,6.63
2019-04-04T19:58:48.909Z,8.08
2019-04-04T20:01:17.464Z,6.63
2019-04-04T20:03:45.954Z,6.90
2019-04-04T20:06:14.461Z,6.43
2019-04-04T20:08:42.938Z,6.90
2019-04-04T20:11:11.438Z,8.87
2019-04-04T20:13:39.958Z,9.18
2019-04-04T20:16:08.441Z,12.30
2019-04-04T20:18:36.927Z,12.50
2019-04-04T20:21:05.415Z,9.67
2019-04-04T20:23:33.880Z,9.00
2019-04-04T20:26:02.590Z,9.83
2019-04-04T20:28:31.054Z,7.95
2019-04-04T20:30:59.855Z,8.87
2019-04-04T20:33:28.396Z,9.53
2019-04-04T20:35:56.958Z,8.40
2019-04-04T20:38:25.505Z,8.05
2019-04-04T20:40:54.033Z,7.40
2019-04-04T20:43:22.508Z,11.28
2019-04-04T20:45:50.993Z,8.33
2019-04-04T20:48:19.463Z,8.93
2019-04-04T20:50:47.952Z,9.00
2019-04-04T20:53:16.492Z,8.97
2019-04-04T20:55:44.978Z,9.67
2019-04-04T20:58:13.462Z,10.00
2019-04-04T21:00:42.165Z,11.57
2019-04-04T21:03:10.675Z,9.90
2019-04-04T21:05:39.136Z,11.03
2019-04-04T21:08:07.661Z,11.93
2019-04-04T21:10:36.140Z,11.50
2019-04-04T21:13:04.709Z,11.90
2019-04-04T21:15:33.167Z,10.33
2019-04-04T21:18:01.673Z,9.50
2019-04-04T21:20:30.168Z,9.73
2019-04-04T21:22:58.682Z,9.17
2019-04-04T21:25:27.146Z,12.20
2019-04-04T21:27:55.688Z,13.57
2019-04-04T21:30:24.114Z,12.23
2019-04-04T21:32:52.610Z,10.50
2019-04-04T21:35:21.078Z,10.30
2019-04-04T21:37:49.572Z,10.87
2019-04-04T21:40:18.042Z,10.93
2019-04-04T21:42:46.537Z,13.97
2019-04-04T21:45:15.441Z,10.85
2019-04-04T21:47:44.119Z,10.82
2019-04-04T21:50:12.650Z,13.03
2019-04-04T21:52:41.207Z,12.63
2019-04-04T21:55:09.850Z,12.13
2019-04-04T21:57:38.346Z,12.77
2019-04-04T22:00:07.443Z,14.80
2019-04-04T22:02:36.160Z,12.10
2019-04-04T22:05:09.491Z,12.73
2019-04-04T22:07:37.993Z,11.98
2019-04-04T22:10:07.557Z,12.37
2019-04-04T22:12:36.045Z,10.40
2019-04-04T22:15:07.522Z,10.53
2019-04-04T22:17:36.091Z,13.25
2019-04-04T22:20:06.210Z,10.82
2019-04-04T22:22:34.706Z,11.90
2019-04-04T22:25:04.119Z,12.35
2019-04-04T22:27:32.624Z,14.83
2019-04-04T22:30:01.085Z,12.55
2019-04-04T22:32:29.593Z,13.53
2019-04-04T22:34:58.068Z,13.08
2019-04-04T22:37:26.568Z,12.10
2019-04-04T22:39:55.032Z,14.05
2019-04-04T22:42:23.530Z,14.50
2019-04-04T22:44:51.984Z,13.20
2019-04-04T22:47:20.477Z,12.90
2019-04-04T22:49:48.947Z,16.15
2019-04-04T22:52:17.443Z,11.87
2019-04-04T22:54:45.909Z,12.20
2019-04-04T22:57:14.405Z,13.07
2019-04-04T22:59:42.875Z,11.40
2019-04-04T23:02:11.370Z,12.40
2019-04-04T23:04:39.836Z,11.75
2019-04-04T23:07:08.332Z,11.87
2019-04-04T23:09:36.801Z,15.20
2019-04-04T23:12:05.364Z,13.08
2019-04-04T23:14:46.932Z,12.07
2019-04-04T23:17:03.953Z,11.73
2019-04-04T23:19:32.435Z,9.70
2019-04-04T23:22:00.898Z,12.70
2019-04-04T23:24:29.394Z,10.90
2019-04-04T23:26:57.856Z,11.25
2019-04-04T23:29:26.336Z,12.98
2019-04-04T23:31:54.830Z,11.05
2019-04-04T23:34:23.306Z,9.25
2019-04-04T23:36:51.779Z,8.97
2019-04-04T23:39:20.268Z,12.30
2019-04-04T23:41:48.731Z,9.87
2019-04-04T23:44:17.219Z,10.90
2019-04-04T23:46:45.689Z,11.67
2019-04-04T23:49:14.173Z,13.43
2019-04-04T23:51:42.639Z,10.20
2019-04-04T23:54:11.139Z,10.70
2019-04-04T23:56:39.677Z,11.13
2019-04-04T23:59:08.211Z,11.20
